Hauptseite
METAR-TAF:

METAR-TAF

Flughäfen :

NATO-Flugplatz Geilenkirchen

Geilenkirchen, Deutschland

Breite: 50-57-39N, Länge: 006-2-33E, Höhe: 90 m

Beobachtung

Neuester Wetterbericht von vor 27 Minuten, um 15:50 UTC
Wind 7 kt aus Nord/Nordwest
Temperatur 30°C
Luftfeuchtigkeit 22%
Luftdruck 1012 hPa
Sichtweite 10 km oder mehr
keine Wolken unter 1500 m und keine Kumulonimbus oder Gewitterwolken

METAR: ETNG 161550Z 33007KT CAVOK 30/06 Q1012 NOSIG

Zeit: 18:17 (16:17 UTC)

Prognose

Neuester Wetterbericht von vor 2 Stunden und 17 Minuten, um 14:00 UTC
Gültige Prognose vom 16 um 15 UTC bis 17 um 06 UTC
Wind 7 kt aus Nord
Sichtweite 10 km oder mehr
keine Wolken unter 1500 m und keine Kumulonimbus oder Gewitterwolken
Übergehend zu
vom 16 um 17 UTC bis 16 um 19 UTC
Wind 3 kt aus unterschiedlichen Richtungen

TAF: ETNG 161400Z 1615/1706 36007KT CAVOK BECMG 1617/1619 VRB03KT

Wetterbeobachtungen und Prognosen von mehr als 4000 Flughäfen (METAR und TAF Bericht).

Die verfügbaren Stationen werden durch gelbe und rote Markierungen auf der Karte dargestellt.

Führen Sie die Maus auf sie, um den Namen der Station zu sehen.

Darauf klicken, um die Beobachtung von Wetterbeobachtungen und Prognosen zu sehen.

Um die Karte zu ändern : klicken Sie auf den grünen Tasten mit einem schwarzen Kreuz Zum Vergrößern, auf den grünen Button mit einem Gedankenstrich zu verkleinern, oder auf die grünen Pfeile für benachbarte Karten.


METAR-TAF: